Time;durP1;ratioP1;P1;durP2;ratioP2;P2;SDS_P1;SDS_P2;PMS_P1;PMS_P2;Temp;Humidity;BMP_temperature;BMP_pressure;BME280_temperature;BME280_humidity;BME280_pressure;Samples;Min_cycle;Max_cycle;Signal;HPM_P1;HPM_P2
2022/12/29 00:02:16;;;;;;;6.15;1.27;;;9.00;99.90;;;;;;4985711;28;20058;-58
2022/12/29 00:04:44;;;;;;;4.22;0.65;;;9.00;99.90;;;;;;4989200;28;20046;-59
2022/12/29 00:07:11;;;;;;;5.97;1.10;;;9.00;99.90;;;;;;5002895;28;20046;-58
2022/12/29 00:09:39;;;;;;;10.02;1.25;;;8.90;99.90;;;;;;4989786;28;20050;-62
2022/12/29 00:12:07;;;;;;;7.88;0.88;;;8.90;99.90;;;;;;4987414;28;20043;-60
2022/12/29 00:17:21;;;;;;;11.73;1.65;;;8.90;99.90;;;;;;4985175;28;20410;-59
2022/12/29 00:36:38;;;;;;;7.95;1.25;;;8.80;99.90;;;;;;4994077;28;20038;-59
2022/12/29 00:44:43;;;;;;;10.77;1.42;;;8.80;99.90;;;;;;4997995;28;20050;-60
2022/12/29 00:47:11;;;;;;;13.13;2.03;;;8.80;99.90;;;;;;5007019;28;20474;-59
2022/12/29 00:49:39;;;;;;;7.32;1.20;;;8.80;99.90;;;;;;4990426;28;20054;-59
2022/12/29 00:52:12;;;;;;;8.80;0.82;;;8.70;99.90;;;;;;4989352;28;20042;-59
2022/12/29 00:54:41;;;;;;;9.02;1.50;;;8.70;99.90;;;;;;4983744;28;20482;-59
2022/12/29 00:57:09;;;;;;;8.88;1.27;;;8.80;99.90;;;;;;4999907;28;20608;-59
2022/12/29 00:59:39;;;;;;;5.47;0.65;;;8.70;99.90;;;;;;4991236;28;20050;-59
2022/12/29 01:02:07;;;;;;;6.53;1.80;;;8.70;99.90;;;;;;5002141;28;20057;-58
2022/12/29 01:04:35;;;;;;;3.45;0.60;;;8.70;99.90;;;;;;4988665;28;20057;-59
2022/12/29 01:07:03;;;;;;;12.05;1.40;;;8.70;99.90;;;;;;4988451;28;20042;-59
2022/12/29 01:12:40;;;;;;;6.13;1.20;;;8.60;99.90;;;;;;4990070;28;20038;-59
2022/12/29 01:15:08;;;;;;;15.10;1.65;;;8.60;99.90;;;;;;4989409;28;20034;-58
2022/12/29 01:17:36;;;;;;;10.43;1.30;;;8.60;99.90;;;;;;4989442;28;20398;-58
2022/12/29 01:20:04;;;;;;;13.32;1.45;;;8.60;99.90;;;;;;4990115;28;20050;-58
2022/12/29 01:22:32;;;;;;;7.97;1.23;;;8.70;99.90;;;;;;4989912;28;20065;-59
2022/12/29 01:25:00;;;;;;;12.07;2.25;;;8.60;99.90;;;;;;4991256;28;20073;-58
2022/12/29 01:27:27;;;;;;;9.00;1.35;;;8.60;99.90;;;;;;4990249;28;20065;-58
2022/12/29 01:29:55;;;;;;;13.50;1.25;;;8.60;99.90;;;;;;4986637;28;20059;-58
2022/12/29 01:32:23;;;;;;;13.40;1.20;;;8.60;99.90;;;;;;4977641;28;20039;-58
2022/12/29 01:34:50;;;;;;;10.00;1.60;;;8.60;99.90;;;;;;5006227;28;20046;-58
2022/12/29 01:37:18;;;;;;;16.33;1.02;;;8.60;99.90;;;;;;5004277;28;20045;-57
2022/12/29 01:39:46;;;;;;;7.15;1.73;;;8.60;99.90;;;;;;4990648;28;20050;-58
2022/12/29 01:42:18;;;;;;;14.25;1.42;;;8.50;99.90;;;;;;4990178;28;20054;-57
2022/12/29 01:44:48;;;;;;;12.02;2.03;;;8.40;99.90;;;;;;5004009;28;20046;-60
2022/12/29 01:47:30;;;;;;;13.48;1.58;;;8.30;99.90;;;;;;4990629;28;20064;-58
2022/12/29 01:50:13;;;;;;;9.70;1.70;;;8.30;99.90;;;;;;4985987;28;20852;-59
2022/12/29 01:52:47;;;;;;;15.15;2.00;;;8.30;99.90;;;;;;4990594;28;20050;-58
2022/12/29 01:55:15;;;;;;;11.35;2.03;;;8.20;99.90;;;;;;4990850;28;20042;-59
2022/12/29 01:57:49;;;;;;;12.02;1.77;;;8.20;99.90;;;;;;4990511;28;20044;-59
2022/12/29 02:00:17;;;;;;;9.82;1.67;;;8.20;99.90;;;;;;5004004;28;20375;-59
2022/12/29 02:02:51;;;;;;;;;;;8.20;99.90;;;;;;4990394;28;20053;-60
2022/12/29 02:05:53;;;;;;;12.60;1.45;;;8.20;99.90;;;;;;4999704;28;19922;-60
2022/12/29 02:08:24;;;;;;;10.73;1.73;;;8.20;99.90;;;;;;4991982;28;20042;-57
2022/12/29 02:10:53;;;;;;;11.43;1.75;;;8.10;99.90;;;;;;4990374;28;20042;-58
2022/12/29 02:13:25;;;;;;;11.70;1.83;;;8.00;99.90;;;;;;4988762;28;20038;-60
2022/12/29 02:15:58;;;;;;;10.98;1.67;;;8.00;99.90;;;;;;4989413;28;20046;-62
2022/12/29 02:18:57;;;;;;;5.93;1.15;;;7.70;99.90;;;;;;4988393;28;20061;-65
2022/12/29 02:21:49;;;;;;;4.15;0.75;;;7.70;99.90;;;;;;4984988;28;20050;-60
2022/12/29 02:24:32;;;;;;;7.45;0.70;;;7.40;99.90;;;;;;5005611;28;20054;-62
2022/12/29 02:27:12;;;;;;;5.32;0.52;;;7.20;99.90;;;;;;4988864;28;20046;-63
2022/12/29 02:29:46;;;;;;;6.72;1.58;;;7.10;99.90;;;;;;4987896;28;20051;-64
2022/12/29 02:32:14;;;;;;;2.03;0.40;;;7.00;99.90;;;;;;4986633;28;20062;-64
2022/12/29 02:34:54;;;;;;;1.50;0.50;;;7.00;99.90;;;;;;4991886;28;20061;-62
2022/12/29 02:37:35;;;;;;;4.80;0.32;;;6.90;99.90;;;;;;5007478;28;20053;-64
2022/12/29 02:40:23;;;;;;;7.25;0.50;;;6.80;99.90;;;;;;4991642;28;20038;-63
2022/12/29 02:43:09;;;;;;;1.83;0.30;;;6.80;99.90;;;;;;4989345;28;20039;-59
2022/12/29 02:45:58;;;;;;;4.22;0.52;;;6.70;99.90;;;;;;4990504;28;20054;-58
2022/12/29 02:48:40;;;;;;;3.30;0.65;;;6.60;99.90;;;;;;4992741;28;20410;-60
2022/12/29 02:51:14;;;;;;;2.05;0.47;;;6.60;99.90;;;;;;5022613;28;20046;-59
2022/12/29 02:56:30;;;;;;;1.73;0.20;;;6.60;99.90;;;;;;4991228;28;20042;-60
2022/12/29 02:58:58;;;;;;;0.22;0.00;;;6.50;99.90;;;;;;4990952;28;20518;-61
2022/12/29 03:01:34;;;;;;;1.55;0.13;;;6.40;99.90;;;;;;4991425;28;20050;-61
2022/12/29 03:04:40;;;;;;;0.08;0.00;;;6.30;99.90;;;;;;4988157;28;20054;-61
2022/12/29 03:07:32;;;;;;;0.90;0.17;;;6.30;99.90;;;;;;4990943;28;20544;-59
2022/12/29 03:10:18;;;;;;;0.22;0.00;;;6.20;99.90;;;;;;5007755;28;20409;-59
2022/12/29 03:16:29;;;;;;;1.20;0.20;;;6.20;99.90;;;;;;4987478;28;20047;-59
2022/12/29 03:19:09;;;;;;;0.00;0.00;;;6.20;99.90;;;;;;4989519;28;20054;-59
2022/12/29 03:24:38;;;;;;;0.20;0.00;;;6.20;99.90;;;;;;4991519;28;20042;-58
2022/12/29 03:27:09;;;;;;;1.08;0.20;;;6.20;99.90;;;;;;4991754;28;20038;-60
2022/12/29 03:29:46;;;;;;;3.20;0.28;;;6.20;99.90;;;;;;4990650;28;20069;-60
2022/12/29 03:32:17;;;;;;;3.10;0.32;;;6.30;99.90;;;;;;4986868;28;20054;-61
2022/12/29 03:34:46;;;;;;;0.38;0.10;;;6.20;99.90;;;;;;4991074;28;20537;-59
2022/12/29 03:37:20;;;;;;;0.40;0.10;;;6.20;99.90;;;;;;5021456;28;20405;-58
2022/12/29 03:39:48;;;;;;;0.65;0.10;;;6.30;99.90;;;;;;4989280;28;20039;-59
2022/12/29 03:42:23;;;;;;;1.27;0.10;;;6.20;99.90;;;;;;4990769;28;20042;-59
2022/12/29 03:44:55;;;;;;;1.02;0.00;;;6.20;99.90;;;;;;4988534;28;20482;-60
2022/12/29 03:47:24;;;;;;;0.40;0.10;;;6.20;99.90;;;;;;5007360;28;20042;-59
2022/12/29 03:49:54;;;;;;;1.20;0.10;;;6.20;99.90;;;;;;5022841;28;20046;-59
2022/12/29 03:52:22;;;;;;;1.45;0.10;;;6.20;99.90;;;;;;4990453;28;20554;-59
2022/12/29 03:54:52;;;;;;;1.77;0.10;;;6.20;99.90;;;;;;4990158;28;20118;-59
2022/12/29 03:57:19;;;;;;;1.48;0.10;;;6.20;99.90;;;;;;4990856;28;20402;-59
2022/12/29 04:00:00;;;;;;;0.22;0.10;;;6.20;99.90;;;;;;4990626;28;20043;-60
2022/12/29 04:02:30;;;;;;;;;;;5.70;99.90;;;;;;4991988;28;20050;-60
2022/12/29 04:04:58;;;;;;;1.63;0.17;;;6.20;99.90;;;;;;4990677;28;19922;-60
2022/12/29 04:07:26;;;;;;;0.10;0.00;;;6.20;99.90;;;;;;4990384;28;20050;-59
2022/12/29 04:09:55;;;;;;;0.17;0.00;;;6.20;99.90;;;;;;4989431;28;20053;-58
2022/12/29 04:12:26;;;;;;;0.20;0.10;;;6.20;99.90;;;;;;4990324;28;20058;-59
2022/12/29 04:14:53;;;;;;;1.65;0.00;;;6.20;99.90;;;;;;4990460;28;20042;-59
2022/12/29 04:17:22;;;;;;;2.17;0.00;;;6.20;99.90;;;;;;5006957;28;20057;-58
2022/12/29 04:20:59;;;;;;;1.42;0.30;;;6.10;99.90;;;;;;4990117;28;20042;-58
2022/12/29 04:22:40;;;;;;;0.03;0.00;;;6.10;99.90;;;;;;4991509;28;20076;-59
2022/12/29 04:25:09;;;;;;;0.30;0.00;;;6.00;99.90;;;;;;5006910;28;20042;-63
2022/12/29 04:27:37;;;;;;;0.08;0.08;;;6.00;99.90;;;;;;5023454;28;20042;-60
2022/12/29 04:30:25;;;;;;;0.05;0.05;;;5.90;99.90;;;;;;4990280;28;20047;-63
2022/12/29 04:33:12;;;;;;;0.90;0.10;;;5.90;99.90;;;;;;5006134;28;20038;-60
2022/12/29 04:35:43;;;;;;;1.10;0.03;;;5.90;99.90;;;;;;5006427;28;20049;-60
2022/12/29 04:38:11;;;;;;;0.45;0.10;;;5.90;99.90;;;;;;5022775;28;20035;-60
2022/12/29 04:40:41;;;;;;;2.42;0.10;;;5.90;99.90;;;;;;5006493;28;20509;-61
2022/12/29 04:43:11;;;;;;;4.95;0.22;;;5.80;99.90;;;;;;5022830;28;20053;-60
2022/12/29 04:45:57;;;;;;;0.10;0.08;;;5.80;99.90;;;;;;4990481;28;20047;-62
2022/12/29 04:48:29;;;;;;;1.13;0.20;;;5.70;99.90;;;;;;5023027;28;20050;-62
2022/12/29 04:51:20;;;;;;;1.08;0.75;;;5.70;99.90;;;;;;4992728;28;20050;-60
2022/12/29 04:53:48;;;;;;;0.70;0.13;;;5.60;99.90;;;;;;4988694;28;20123;-59
2022/12/29 04:56:15;;;;;;;2.53;0.30;;;5.50;99.90;;;;;;4990381;28;20046;-61
2022/12/29 04:58:44;;;;;;;0.30;0.10;;;5.50;99.90;;;;;;4990226;28;20050;-61
2022/12/29 05:01:14;;;;;;;1.00;0.20;;;5.50;99.90;;;;;;4990306;28;20046;-62
2022/12/29 05:03:41;;;;;;;0.70;0.20;;;5.40;99.90;;;;;;4990948;28;20059;-62
2022/12/29 05:06:10;;;;;;;1.25;0.20;;;5.40;99.90;;;;;;4986813;28;20426;-61
2022/12/29 05:08:38;;;;;;;2.72;0.60;;;5.40;99.90;;;;;;5007009;28;20053;-62
2022/12/29 05:11:05;;;;;;;1.90;0.20;;;5.30;99.90;;;;;;4988690;28;20406;-60
2022/12/29 05:13:33;;;;;;;0.60;0.30;;;5.30;99.90;;;;;;5008239;28;20046;-59
2022/12/29 05:16:02;;;;;;;2.13;0.43;;;5.30;99.90;;;;;;4993513;28;20402;-59
2022/12/29 05:18:30;;;;;;;2.45;0.30;;;5.30;99.90;;;;;;4993475;28;20042;-60
2022/12/29 05:20:59;;;;;;;2.90;0.43;;;;;;;;;;5009353;28;20046;-59
2022/12/29 05:23:28;;;;;;;6.88;0.77;;;5.30;99.90;;;;;;4993336;28;20046;-60
2022/12/29 05:26:00;;;;;;;1.45;0.15;;;5.30;99.90;;;;;;4992157;28;20050;-59
2022/12/29 05:28:46;;;;;;;1.38;0.40;;;5.30;99.90;;;;;;5009248;28;20524;-59
2022/12/29 05:31:18;;;;;;;0.17;0.15;;;5.30;99.90;;;;;;5025424;28;20046;-59
2022/12/29 05:33:46;;;;;;;5.75;0.70;;;5.30;99.90;;;;;;5009009;28;20046;-59
2022/12/29 05:36:14;;;;;;;0.28;0.15;;;5.30;99.90;;;;;;4998837;28;20378;-60
2022/12/29 05:38:46;;;;;;;1.98;0.35;;;5.30;99.90;;;;;;5011160;28;20047;-59
2022/12/29 05:41:14;;;;;;;2.75;0.80;;;5.40;99.90;;;;;;4992024;28;20042;-59
2022/12/29 05:44:04;;;;;;;3.03;0.32;;;5.40;99.90;;;;;;4994088;28;20193;-59
2022/12/29 05:46:31;;;;;;;2.03;0.20;;;5.50;99.90;;;;;;4994220;28;20050;-59
2022/12/29 05:49:11;;;;;;;;;;;5.50;99.90;;;;;;4987402;28;20046;-59
2022/12/29 05:52:17;;;;;;;2.58;0.30;;;5.50;99.90;;;;;;4967918;28;19926;-60
2022/12/29 05:54:45;;;;;;;1.90;0.63;;;5.50;99.90;;;;;;4952809;28;20051;-60
2022/12/29 05:57:17;;;;;;;2.83;0.60;;;5.50;99.90;;;;;;4968283;28;20065;-60
2022/12/29 05:59:50;;;;;;;0.28;0.20;;;5.50;99.90;;;;;;4996997;28;20061;-58
2022/12/29 06:02:18;;;;;;;1.95;0.38;;;5.40;99.90;;;;;;4998958;28;20042;-59
2022/12/29 06:04:46;;;;;;;4.38;0.52;;;5.40;99.90;;;;;;4975725;28;20055;-59
2022/12/29 06:07:14;;;;;;;0.98;0.55;;;5.40;99.90;;;;;;5000251;28;20038;-59
2022/12/29 06:09:44;;;;;;;1.02;0.57;;;5.40;99.90;;;;;;4988551;28;20520;-59
2022/12/29 06:12:13;;;;;;;2.97;0.60;;;5.30;99.90;;;;;;5004638;28;20053;-58
2022/12/29 06:14:48;;;;;;;6.13;0.70;;;5.30;99.90;;;;;;5005188;28;20062;-58
2022/12/29 06:17:16;;;;;;;4.18;0.73;;;5.30;99.90;;;;;;5004590;28;20062;-59
2022/12/29 06:19:44;;;;;;;5.20;0.90;;;5.30;99.90;;;;;;5004881;28;20046;-59
2022/12/29 06:22:12;;;;;;;2.10;0.50;;;5.30;99.90;;;;;;4985619;28;20050;-58
2022/12/29 06:24:43;;;;;;;3.67;0.60;;;5.30;99.90;;;;;;4985985;28;20157;-60
2022/12/29 06:27:11;;;;;;;5.40;0.38;;;5.30;99.90;;;;;;4993932;28;20038;-59
2022/12/29 06:29:40;;;;;;;6.85;0.50;;;5.30;99.90;;;;;;5021631;28;20065;-59
2022/12/29 06:32:08;;;;;;;2.42;0.45;;;5.20;99.90;;;;;;4985490;28;20054;-59
2022/12/29 06:34:39;;;;;;;6.95;0.93;;;5.20;99.90;;;;;;4979406;28;20062;-59
2022/12/29 06:37:07;;;;;;;2.65;0.55;;;5.20;99.90;;;;;;4990458;28;20047;-59
2022/12/29 06:39:35;;;;;;;3.97;0.40;;;5.20;99.90;;;;;;4974673;28;20537;-59
2022/12/29 06:42:10;;;;;;;3.15;0.80;;;5.20;99.90;;;;;;4986553;28;20045;-60
2022/12/29 06:44:58;;;;;;;0.95;0.28;;;5.20;99.90;;;;;;4986310;28;20390;-59
2022/12/29 06:47:26;;;;;;;;;;;5.20;99.90;;;;;;4988686;28;20494;-59
2022/12/29 06:49:53;;;;;;;3.25;0.47;;;5.20;99.90;;;;;;4986296;28;19929;-59
2022/12/29 06:52:23;;;;;;;4.07;0.70;;;5.30;99.90;;;;;;4985686;28;20053;-59
2022/12/29 06:54:51;;;;;;;3.22;0.45;;;5.30;99.90;;;;;;4985741;28;20047;-60
2022/12/29 06:57:19;;;;;;;4.88;0.65;;;5.40;99.90;;;;;;5021480;28;20042;-59
2022/12/29 06:59:47;;;;;;;2.58;0.75;;;5.50;99.90;;;;;;5008859;28;20061;-59
2022/12/29 07:02:17;;;;;;;2.72;0.45;;;5.50;99.90;;;;;;4976633;28;20065;-63
2022/12/29 07:04:45;;;;;;;3.72;0.50;;;5.50;99.90;;;;;;5000349;28;20054;-60
2022/12/29 07:07:13;;;;;;;2.25;1.45;;;5.60;99.90;;;;;;5003376;28;20042;-59
2022/12/29 07:09:41;;;;;;;7.20;0.60;;;5.60;99.90;;;;;;4992158;28;20047;-62
2022/12/29 07:12:08;;;;;;;1.40;0.50;;;5.60;99.90;;;;;;4988841;28;20061;-62
2022/12/29 07:14:36;;;;;;;6.15;0.55;;;5.60;99.90;;;;;;4989008;28;20520;-63
2022/12/29 07:17:09;;;;;;;5.10;0.50;;;5.60;99.90;;;;;;4989751;28;20046;-62
2022/12/29 07:19:37;;;;;;;1.45;0.50;;;5.60;99.90;;;;;;5004397;28;20066;-63
2022/12/29 07:22:05;;;;;;;3.90;0.73;;;5.70;99.90;;;;;;4988228;28;20042;-62
2022/12/29 07:24:33;;;;;;;4.47;0.30;;;5.70;99.90;;;;;;4988355;28;20049;-60
2022/12/29 07:27:01;;;;;;;2.88;0.57;;;5.80;99.90;;;;;;4988852;28;20502;-59
2022/12/29 07:29:28;;;;;;;4.30;0.70;;;5.80;99.90;;;;;;5006468;28;20050;-62
2022/12/29 07:31:56;;;;;;;9.45;0.55;;;5.90;99.90;;;;;;4987852;28;20050;-61
2022/12/29 07:34:23;;;;;;;9.20;0.80;;;5.90;99.90;;;;;;4984753;28;20038;-61
2022/12/29 07:36:51;;;;;;;3.75;0.40;;;5.90;99.90;;;;;;4996517;28;20054;-61
2022/12/29 07:39:19;;;;;;;6.10;0.57;;;5.90;99.90;;;;;;4985882;28;20069;-61
2022/12/29 07:41:46;;;;;;;7.93;0.40;;;5.90;99.90;;;;;;4987461;28;20041;-61
2022/12/29 07:44:18;;;;;;;5.93;0.60;;;5.80;99.90;;;;;;5003928;28;20050;-59
2022/12/29 07:47:18;;;;;;;2.58;0.45;;;5.80;99.90;;;;;;4993655;28;20065;-60
2022/12/29 07:49:47;;;;;;;5.43;0.70;;;5.80;99.90;;;;;;4987012;28;20516;-59
2022/12/29 07:52:14;;;;;;;6.95;0.68;;;5.80;99.90;;;;;;4987646;28;20482;-60
2022/12/29 07:54:42;;;;;;;2.67;0.60;;;5.80;99.90;;;;;;4988662;28;20486;-59
2022/12/29 07:57:10;;;;;;;9.23;0.90;;;5.90;99.90;;;;;;4985993;28;20043;-60
2022/12/29 07:59:37;;;;;;;2.40;0.45;;;5.90;99.90;;;;;;4984625;28;20108;-60
2022/12/29 08:02:05;;;;;;;5.05;0.52;;;5.90;99.90;;;;;;4983207;28;20509;-60
2022/12/29 08:04:33;;;;;;;2.90;0.57;;;5.90;99.90;;;;;;4985107;28;20398;-59
2022/12/29 08:07:01;;;;;;;4.82;0.70;;;5.90;99.90;;;;;;4988948;28;20042;-59
2022/12/29 08:09:28;;;;;;;9.18;0.70;;;5.90;99.90;;;;;;4987125;28;20050;-60
2022/12/29 08:11:56;;;;;;;4.22;0.60;;;5.80;99.90;;;;;;5019885;28;20050;-60
2022/12/29 08:14:24;;;;;;;3.60;1.20;;;5.80;99.90;;;;;;4988379;28;20423;-61
2022/12/29 08:16:51;;;;;;;6.18;0.80;;;5.80;99.90;;;;;;4987483;28;20501;-59
2022/12/29 08:19:19;;;;;;;6.43;0.68;;;5.80;99.90;;;;;;4998828;28;20053;-59
2022/12/29 08:21:46;;;;;;;6.97;0.88;;;5.80;99.90;;;;;;4987686;28;20532;-62
2022/12/29 08:24:14;;;;;;;4.32;0.50;;;5.80;99.90;;;;;;4987101;28;20046;-60
2022/12/29 08:26:42;;;;;;;4.50;1.10;;;5.80;99.90;;;;;;4988695;28;20050;-60
2022/12/29 08:29:09;;;;;;;3.85;0.50;;;5.80;99.90;;;;;;5018423;28;20069;-60
2022/12/29 08:31:37;;;;;;;13.20;1.00;;;5.80;99.90;;;;;;4988193;28;20406;-60
2022/12/29 08:34:05;;;;;;;3.88;0.82;;;5.70;99.90;;;;;;4986741;28;20046;-60
2022/12/29 08:36:33;;;;;;;5.57;0.82;;;5.70;99.90;;;;;;4996778;28;20042;-60
2022/12/29 08:39:01;;;;;;;6.05;0.50;;;5.70;99.90;;;;;;4993504;28;20518;-60
2022/12/29 08:41:28;;;;;;;6.15;0.65;;;5.60;99.90;;;;;;4990829;28;20051;-60
2022/12/29 08:43:56;;;;;;;2.95;0.38;;;5.50;99.90;;;;;;4990172;28;20054;-60
2022/12/29 08:46:24;;;;;;;4.20;0.75;;;5.50;99.90;;;;;;4992082;28;20053;-60
2022/12/29 08:48:52;;;;;;;1.65;0.30;;;5.50;99.90;;;;;;5005705;28;20057;-60
2022/12/29 08:51:20;;;;;;;2.38;0.68;;;5.50;99.90;;;;;;4997178;28;20046;-60
2022/12/29 08:53:52;;;;;;;2.00;0.38;;;5.50;99.90;;;;;;4991013;28;20486;-60
2022/12/29 08:56:19;;;;;;;3.80;0.68;;;5.40;99.90;;;;;;4986489;28;20042;-60
2022/12/29 08:58:52;;;;;;;0.50;0.38;;;5.40;99.90;;;;;;4990405;28;20050;-60
2022/12/29 09:01:21;;;;;;;3.78;0.40;;;5.40;99.90;;;;;;4989901;28;20042;-60
2022/12/29 09:03:50;;;;;;;5.23;0.57;;;5.40;99.90;;;;;;4990841;28;20509;-60
2022/12/29 09:06:38;;;;;;;1.50;0.22;;;5.30;99.90;;;;;;4993992;28;20050;-60
2022/12/29 09:09:07;;;;;;;3.40;1.30;;;5.30;99.90;;;;;;4980929;28;20054;-60
2022/12/29 09:11:35;;;;;;;6.47;0.93;;;5.30;99.90;;;;;;4989426;28;20042;-61
2022/12/29 09:14:03;;;;;;;5.45;0.70;;;5.30;99.90;;;;;;4989608;28;20065;-61
2022/12/29 09:16:31;;;;;;;2.90;0.43;;;5.30;99.90;;;;;;4989428;28;20050;-60
2022/12/29 09:19:01;;;;;;;2.67;0.57;;;5.30;99.90;;;;;;4991250;28;20061;-61
2022/12/29 09:21:29;;;;;;;5.75;0.57;;;5.40;99.90;;;;;;4990213;28;20073;-61
2022/12/29 09:23:56;;;;;;;7.03;1.23;;;5.40;99.90;;;;;;4986437;28;20047;-60
2022/12/29 09:26:24;;;;;;;3.05;0.40;;;5.40;99.90;;;;;;4990507;28;20061;-61
2022/12/29 09:28:51;;;;;;;5.00;0.63;;;5.40;99.90;;;;;;4986793;28;20501;-60
2022/12/29 09:31:19;;;;;;;7.40;0.47;;;5.40;99.90;;;;;;4984608;28;20050;-60
2022/12/29 09:33:47;;;;;;;7.68;0.60;;;5.50;99.90;;;;;;5002843;28;20038;-60
2022/12/29 09:36:15;;;;;;;2.63;0.50;;;5.50;99.90;;;;;;4995755;28;20057;-61
2022/12/29 09:38:42;;;;;;;8.07;2.15;;;5.50;99.90;;;;;;5001128;28;20401;-61
2022/12/29 09:41:24;;;;;;;5.63;0.82;;;5.60;99.90;;;;;;4990616;28;20061;-61
2022/12/29 09:44:14;;;;;;;8.25;1.52;;;5.60;99.90;;;;;;4988331;28;20047;-60
2022/12/29 09:46:49;;;;;;;9.75;1.33;;;5.60;99.90;;;;;;4988755;28;20061;-61
2022/12/29 09:49:29;;;;;;;4.93;0.88;;;5.70;99.90;;;;;;4989053;28;20066;-61
2022/12/29 09:52:04;;;;;;;4.15;0.68;;;5.70;99.90;;;;;;4988345;28;20054;-65
2022/12/29 09:55:04;;;;;;;6.57;0.85;;;5.80;99.90;;;;;;4989751;28;20066;-60
2022/12/29 09:57:58;;;;;;;11.48;1.10;;;5.80;99.90;;;;;;4985095;28;20063;-62
2022/12/29 10:00:52;;;;;;;6.88;1.10;;;5.90;99.90;;;;;;4989848;28;20105;-63
2022/12/29 10:03:27;;;;;;;6.28;0.90;;;6.00;99.90;;;;;;4987592;28;20403;-60
2022/12/29 10:06:13;;;;;;;11.32;1.25;;;6.00;99.90;;;;;;4989666;28;20046;-63
2022/12/29 10:09:08;;;;;;;14.55;0.98;;;6.00;99.90;;;;;;4990459;28;20494;-62
2022/12/29 10:12:17;;;;;;;8.98;1.55;;;6.00;99.90;;;;;;4974240;28;20047;-63
2022/12/29 10:15:08;;;;;;;10.68;1.08;;;6.00;99.90;;;;;;4986012;28;20042;-63
2022/12/29 10:17:39;;;;;;;12.35;1.38;;;6.00;99.90;;;;;;4989254;28;20050;-61
2022/12/29 10:20:15;;;;;;;11.48;1.67;;;6.00;99.90;;;;;;4988046;28;20049;-61
2022/12/29 10:23:04;;;;;;;8.82;1.50;;;6.10;99.90;;;;;;4992474;28;20528;-61
2022/12/29 10:25:38;;;;;;;14.38;1.30;;;6.10;99.90;;;;;;5004422;28;20039;-61
2022/12/29 10:28:17;;;;;;;12.00;1.23;;;6.10;99.90;;;;;;4990058;28;20050;-60
2022/12/29 10:30:48;;;;;;;6.30;1.65;;;6.10;99.90;;;;;;4988490;28;20050;-62
2022/12/29 10:33:21;;;;;;;6.53;1.90;;;6.20;99.90;;;;;;4989123;28;20648;-61
2022/12/29 10:35:50;;;;;;;5.20;1.10;;;6.20;99.90;;;;;;4992396;28;20057;-60
2022/12/29 10:38:40;;;;;;;10.57;1.40;;;6.20;99.90;;;;;;4989180;28;20524;-60
2022/12/29 10:41:10;;;;;;;8.18;1.60;;;6.30;99.90;;;;;;5009667;28;20050;-63
2022/12/29 10:43:46;;;;;;;8.13;1.10;;;6.30;99.90;;;;;;4995053;28;20050;-61
2022/12/29 10:46:21;;;;;;;10.40;1.13;;;6.30;99.90;;;;;;4988266;28;20065;-61
2022/12/29 10:48:49;;;;;;;17.15;2.10;;;6.40;99.90;;;;;;5034931;28;20045;-60
2022/12/29 10:51:27;;;;;;;11.20;1.83;;;6.40;99.90;;;;;;4995005;28;20050;-60
2022/12/29 10:54:23;;;;;;;14.15;1.77;;;6.40;99.90;;;;;;4989215;28;20038;-59
2022/12/29 10:56:59;;;;;;;10.52;1.63;;;6.50;99.90;;;;;;4987554;28;20046;-61
2022/12/29 10:59:31;;;;;;;14.50;1.95;;;6.60;99.90;;;;;;4991658;28;20047;-60
2022/12/29 11:02:10;;;;;;;10.75;1.30;;;6.80;99.90;;;;;;4997937;28;20052;-60
2022/12/29 11:05:02;;;;;;;10.57;1.83;;;6.90;99.90;;;;;;5020501;28;20413;-60
2022/12/29 11:07:31;;;;;;;10.02;1.52;;;7.00;99.90;;;;;;4991128;28;20065;-61
2022/12/29 11:10:30;;;;;;;8.93;1.65;;;7.00;99.90;;;;;;5006893;28;20053;-62
2022/12/29 11:13:14;;;;;;;13.23;2.28;;;7.10;99.90;;;;;;4989307;28;20050;-62
2022/12/29 11:15:50;;;;;;;15.70;1.60;;;7.10;99.90;;;;;;4989050;28;20057;-62
2022/12/29 11:18:22;;;;;;;15.27;2.08;;;7.20;99.90;;;;;;4988636;28;20065;-61
2022/12/29 11:20:54;;;;;;;11.65;1.15;;;7.20;99.90;;;;;;4988036;28;20047;-62
2022/12/29 11:23:32;;;;;;;10.80;1.13;;;7.20;99.90;;;;;;4988203;28;20486;-60
2022/12/29 11:26:22;;;;;;;10.52;1.25;;;7.20;99.90;;;;;;4987230;28;20501;-59
2022/12/29 11:29:21;;;;;;;15.40;1.67;;;7.20;99.90;;;;;;5002559;28;20056;-59
2022/12/29 11:31:54;;;;;;;12.20;2.00;;;7.20;99.90;;;;;;4988930;28;20050;-59
2022/12/29 11:34:30;;;;;;;8.60;0.98;;;7.10;99.90;;;;;;4984783;28;20053;-58
2022/12/29 11:37:14;;;;;;;5.70;1.60;;;7.20;99.90;;;;;;4993870;28;20042;-60
2022/12/29 11:40:07;;;;;;;9.50;1.85;;;7.30;99.90;;;;;;4987093;28;20463;-60
2022/12/29 11:42:37;;;;;;;15.80;2.70;;;7.50;99.90;;;;;;4986423;28;20064;-58
2022/12/29 11:45:23;;;;;;;10.03;1.10;;;7.60;99.90;;;;;;4999805;28;20500;-58
2022/12/29 11:48:00;;;;;;;8.52;1.98;;;7.50;99.90;;;;;;4981167;28;20300;-58
2022/12/29 11:50:32;;;;;;;12.52;1.52;;;7.50;99.90;;;;;;4976139;28;20057;-59
2022/12/29 11:53:05;;;;;;;7.95;1.38;;;7.50;99.90;;;;;;4992879;28;20138;-60
2022/12/29 11:55:33;;;;;;;8.95;1.08;;;7.50;99.90;;;;;;4988443;28;20200;-60
2022/12/29 11:58:04;;;;;;;3.72;0.85;;;7.40;99.90;;;;;;4999068;28;20046;-60
2022/12/29 12:00:40;;;;;;;4.97;1.65;;;7.40;99.90;;;;;;4996479;28;20053;-59
2022/12/29 12:03:16;;;;;;;15.88;1.80;;;7.40;99.90;;;;;;5009053;28;20043;-59
2022/12/29 12:05:53;;;;;;;7.05;1.95;;;7.40;99.90;;;;;;5001009;28;20429;-59
2022/12/29 12:08:55;;;;;;;7.88;2.05;;;7.30;99.90;;;;;;4993826;28;20039;-58
2022/12/29 12:11:35;;;;;;;16.48;1.55;;;7.40;99.90;;;;;;4997700;28;20049;-59
2022/12/29 12:14:26;;;;;;;9.27;1.17;;;7.30;99.90;;;;;;4998723;28;20038;-60
2022/12/29 12:17:29;;;;;;;11.10;1.40;;;7.30;99.90;;;;;;5016117;28;20051;-58
2022/12/29 12:20:21;;;;;;;11.35;1.30;;;7.50;99.90;;;;;;4995310;28;20057;-60
2022/12/29 12:23:08;;;;;;;11.90;1.27;;;7.60;99.90;;;;;;4995722;28;20509;-58
2022/12/29 12:25:47;;;;;;;9.80;1.60;;;7.60;99.90;;;;;;4990489;28;20058;-60
2022/12/29 12:28:31;;;;;;;13.43;4.00;;;7.60;99.90;;;;;;5002890;28;20057;-57
2022/12/29 12:31:15;;;;;;;8.73;1.17;;;7.70;99.90;;;;;;4992074;28;20060;-58
2022/12/29 12:33:47;;;;;;;12.55;3.83;;;8.20;99.90;;;;;;4996701;28;20057;-60
2022/12/29 12:36:34;;;;;;;8.18;1.38;;;8.90;99.90;;;;;;4998489;28;20054;-59
2022/12/29 12:39:27;;;;;;;14.10;1.55;;;9.50;99.90;;;;;;4992591;28;20046;-63
2022/12/29 12:42:09;;;;;;;8.85;0.90;;;10.40;99.90;;;;;;5003699;28;20068;-63
2022/12/29 12:44:56;;;;;;;9.15;1.25;;;10.50;99.90;;;;;;5002442;28;20478;-63
2022/12/29 12:47:32;;;;;;;10.93;2.10;;;10.40;99.90;;;;;;4992121;28;20034;-60
2022/12/29 12:50:12;;;;;;;10.05;2.20;;;10.00;99.90;;;;;;4995473;28;20529;-63
2022/12/29 12:52:58;;;;;;;5.43;1.30;;;9.70;99.90;;;;;;4991824;28;20058;-62
2022/12/29 12:56:03;;;;;;;8.25;1.45;;;9.40;99.90;;;;;;4987207;28;20053;-60
2022/12/29 12:58:49;;;;;;;12.38;1.90;;;9.00;99.90;;;;;;5001251;28;20053;-59
2022/12/29 13:01:40;;;;;;;11.05;1.60;;;8.90;99.90;;;;;;4973459;28;20051;-59
2022/12/29 13:04:23;;;;;;;14.43;1.20;;;8.90;99.90;;;;;;4991452;28;20073;-60
2022/12/29 13:07:03;;;;;;;10.00;1.20;;;9.00;99.90;;;;;;4992765;28;20046;-59
2022/12/29 13:09:56;;;;;;;9.68;1.10;;;9.20;99.90;;;;;;5000429;28;20495;-60
2022/12/29 13:12:45;;;;;;;5.38;1.00;;;9.70;99.90;;;;;;4991029;28;20053;-60
2022/12/29 13:15:42;;;;;;;6.60;1.25;;;10.00;99.90;;;;;;4991534;28;20386;-60
2022/12/29 13:18:20;;;;;;;9.85;1.25;;;9.80;99.90;;;;;;4979457;28;20048;-58
2022/12/29 13:21:00;;;;;;;5.55;1.17;;;9.50;99.90;;;;;;4984867;28;20046;-59
2022/12/29 13:23:55;;;;;;;7.00;1.23;;;9.50;99.90;;;;;;4987211;28;20049;-61
2022/12/29 13:26:46;;;;;;;4.88;0.90;;;9.20;99.90;;;;;;5019761;28;20042;-59
2022/12/29 13:29:27;;;;;;;14.15;1.10;;;8.90;99.90;;;;;;4989392;28;20614;-59
2022/12/29 13:32:12;;;;;;;11.90;1.40;;;8.70;99.90;;;;;;4990028;28;20418;-59
2022/12/29 13:34:56;;;;;;;10.90;1.20;;;8.70;99.90;;;;;;4990721;28;20054;-59
2022/12/29 13:37:29;;;;;;;7.07;1.08;;;8.70;99.90;;;;;;5006771;28;20061;-63
2022/12/29 13:40:01;;;;;;;14.20;1.35;;;8.70;99.90;;;;;;4994954;28;20042;-59
2022/12/29 13:42:29;;;;;;;9.40;1.27;;;8.70;99.90;;;;;;4989860;28;20050;-61
2022/12/29 13:44:59;;;;;;;8.40;1.60;;;8.60;99.90;;;;;;4990810;28;20485;-60
2022/12/29 13:47:30;;;;;;;;;;;8.70;99.90;;;;;;4992895;28;20054;-61
2022/12/29 13:50:01;;;;;;;12.00;1.10;;;8.60;99.90;;;;;;5008647;28;19945;-59
2022/12/29 13:52:34;;;;;;;8.40;1.05;;;8.60;99.90;;;;;;4989571;28;20042;-59
2022/12/29 13:55:26;;;;;;;9.10;1.60;;;8.40;99.90;;;;;;4990111;28;20375;-59
2022/12/29 13:58:14;;;;;;;8.93;1.30;;;8.30;99.90;;;;;;4989037;28;20042;-59
2022/12/29 14:00:57;;;;;;;12.02;0.95;;;8.30;99.90;;;;;;4990678;28;20053;-59
2022/12/29 14:03:43;;;;;;;6.20;1.10;;;8.20;99.90;;;;;;4990193;28;20390;-59
2022/12/29 14:06:16;;;;;;;9.25;1.25;;;8.10;99.90;;;;;;4996592;28;20053;-62
2022/12/29 14:08:44;;;;;;;5.00;0.80;;;8.10;99.90;;;;;;4993184;28;20394;-59
2022/12/29 14:11:15;;;;;;;14.05;1.50;;;8.10;99.90;;;;;;4990666;28;20061;-59
2022/12/29 14:13:46;;;;;;;7.38;1.30;;;8.10;99.90;;;;;;4990077;28;20042;-59